KNUW

Whidbey Island NAS / Ault Field Airport

Oak Harbor, Washington, USA
METAR KNUW 230456Z 14003KT 8SM FEW010 FEW025 05/03 A2993 RMK AO2 SLP134 T00500028 VISNO $
Observed Flight Rules
Oct-23 @ 04:56 UTC (23 minutes ago) Visual Flight Rules
Wind Visibility Clouds
140° at 3 knots 8 miles
  • Few at 1,000' AGL
  • Few at 2,500' AGL
Temperatures Readings
Current 5°C / 41°F
Dewpoint 3°C / 37°F
Humidity 87%
Altimeter 29.93" Hg
Pressure 1013.4 hPa
Elevation 14
METAR KNUW 230456Z 14003KT 8SM FEW010 FEW025 05/03 A2993 RMK AO2 SLP134 T00500028 VISNO $
Observed Flight Rules
Oct-23 @ 04:56 UTC
(23 minutes ago)
VFR
Wind Visibility
140° at 3 knots 8 miles
Clouds
  • Few at 1,000' AGL
  • Few at 2,500' AGL
Temperature Dewpoint
5°C / 41°F 3°C / 37°F
Humidity Altimeter Pressure
87% 29.93" Hg 1013.4 hPa